createdAt,value
2023-05-14T00:01:12.130Z,100.00
2023-05-14T00:03:40.935Z,100.00
2023-05-14T00:06:09.464Z,100.00
2023-05-14T00:08:37.378Z,100.00
2023-05-14T00:11:08.952Z,100.00
2023-05-14T00:13:36.853Z,100.00
2023-05-14T00:16:05.084Z,100.00
2023-05-14T00:18:33.400Z,100.00
2023-05-14T00:21:01.306Z,100.00
2023-05-14T00:23:29.256Z,100.00
2023-05-14T00:25:57.099Z,100.00
2023-05-14T00:28:26.303Z,100.00
2023-05-14T00:30:54.218Z,100.00
2023-05-14T00:33:22.040Z,100.00
2023-05-14T00:35:49.913Z,100.00
2023-05-14T00:38:19.541Z,100.00
2023-05-14T00:40:52.158Z,100.00
2023-05-14T00:43:20.875Z,100.00
2023-05-14T00:45:51.790Z,99.85
2023-05-14T00:48:20.877Z,99.68
2023-05-14T00:50:50.545Z,99.71
2023-05-14T00:53:18.892Z,99.45
2023-05-14T00:55:49.710Z,99.84
2023-05-14T00:58:19.399Z,99.58
2023-05-14T01:00:47.411Z,100.00
2023-05-14T01:03:16.892Z,99.14
2023-05-14T01:06:01.125Z,99.07
2023-05-14T01:08:37.455Z,99.35
2023-05-14T01:11:09.094Z,99.15
2023-05-14T01:13:45.208Z,99.38
2023-05-14T01:16:15.775Z,99.26
2023-05-14T01:18:47.343Z,99.27
2023-05-14T01:21:44.924Z,99.11
2023-05-14T01:24:12.749Z,99.43
2023-05-14T01:26:40.938Z,99.42
2023-05-14T01:29:14.932Z,99.63
2023-05-14T01:31:45.307Z,100.00
2023-05-14T01:34:15.104Z,100.00
2023-05-14T01:36:45.312Z,100.00
2023-05-14T01:39:15.197Z,100.00
2023-05-14T01:41:43.967Z,100.00
2023-05-14T01:44:12.932Z,100.00
2023-05-14T01:46:40.834Z,100.00
2023-05-14T01:49:08.722Z,100.00
2023-05-14T01:51:36.723Z,100.00
2023-05-14T01:54:06.056Z,99.74
2023-05-14T01:56:33.804Z,99.42
2023-05-14T01:59:01.532Z,99.55
2023-05-14T02:01:29.757Z,98.85
2023-05-14T02:03:58.029Z,99.08
2023-05-14T02:06:26.125Z,98.82
2023-05-14T02:08:53.881Z,98.71
2023-05-14T02:11:23.003Z,99.30
2023-05-14T02:13:51.028Z,99.06
2023-05-14T02:16:19.192Z,99.60
2023-05-14T02:18:47.233Z,99.96
2023-05-14T02:21:15.132Z,99.54
2023-05-14T02:23:43.090Z,99.98
2023-05-14T02:26:10.957Z,99.88
2023-05-14T02:28:40.128Z,100.00
2023-05-14T02:31:08.119Z,100.00
2023-05-14T02:33:36.071Z,100.00
2023-05-14T02:36:03.960Z,100.00
2023-05-14T02:38:31.753Z,100.00
2023-05-14T02:40:59.566Z,100.00
2023-05-14T02:43:27.295Z,99.67
2023-05-14T02:45:56.477Z,99.91
2023-05-14T02:48:24.311Z,99.63
2023-05-14T02:50:52.522Z,99.58
2023-05-14T02:53:20.441Z,99.39
2023-05-14T02:55:48.207Z,99.43
2023-05-14T02:58:16.090Z,99.47
2023-05-14T03:00:43.908Z,99.37
2023-05-14T03:03:13.716Z,99.62
2023-05-14T03:05:41.794Z,99.35
2023-05-14T03:08:09.601Z,99.32
2023-05-14T03:10:37.309Z,98.57
2023-05-14T03:13:05.132Z,99.30
2023-05-14T03:15:32.893Z,99.17
2023-05-14T03:18:00.753Z,98.95
2023-05-14T03:20:30.030Z,99.05
2023-05-14T03:22:57.853Z,99.30
2023-05-14T03:25:25.585Z,99.73
2023-05-14T03:27:53.368Z,99.58
2023-05-14T03:30:21.426Z,99.77
2023-05-14T03:32:49.642Z,99.86
2023-05-14T03:35:17.593Z,100.00
2023-05-14T03:37:46.755Z,99.75
2023-05-14T03:40:14.537Z,99.61
2023-05-14T03:42:42.274Z,99.33
2023-05-14T03:45:11.278Z,99.80
2023-05-14T03:47:39.098Z,99.89
2023-05-14T03:50:08.512Z,99.94
2023-05-14T03:52:36.552Z,100.00
2023-05-14T03:55:06.348Z,99.51
2023-05-14T03:57:34.103Z,99.51
2023-05-14T04:00:01.814Z,99.72
2023-05-14T04:02:29.746Z,99.58
2023-05-14T04:04:57.589Z,99.78
2023-05-14T04:07:25.425Z,99.50
2023-05-14T04:09:53.541Z,99.02
2023-05-14T04:12:22.933Z,99.62
2023-05-14T04:14:50.620Z,99.27
2023-05-14T04:17:18.387Z,99.12
2023-05-14T04:19:46.123Z,99.19
2023-05-14T04:22:13.993Z,98.94
2023-05-14T04:24:42.067Z,98.48
2023-05-14T04:27:09.912Z,98.32
2023-05-14T04:29:38.931Z,97.57
2023-05-14T04:32:07.933Z,97.25
2023-05-14T04:34:35.828Z,96.49
2023-05-14T04:37:04.205Z,95.32
2023-05-14T04:39:31.962Z,94.71
2023-05-14T04:41:59.707Z,94.28
2023-05-14T04:44:27.678Z,94.45
2023-05-14T04:46:57.165Z,94.45
2023-05-14T04:49:25.083Z,94.42
2023-05-14T04:51:53.571Z,93.42
2023-05-14T04:54:21.665Z,93.37
2023-05-14T04:56:49.689Z,94.04
2023-05-14T04:59:17.590Z,93.85
2023-05-14T05:01:46.305Z,94.17
2023-05-14T05:04:15.610Z,94.02
2023-05-14T05:06:43.376Z,94.99
2023-05-14T05:09:11.238Z,95.25
2023-05-14T05:11:38.979Z,94.84
2023-05-14T05:14:06.788Z,95.57
2023-05-14T05:16:34.614Z,95.76
2023-05-14T05:19:03.313Z,95.72
2023-05-14T05:21:32.779Z,96.36
2023-05-14T05:24:00.662Z,96.76
2023-05-14T05:26:28.517Z,97.30
2023-05-14T05:28:56.353Z,96.44
2023-05-14T05:31:24.612Z,96.41
2023-05-14T05:33:52.404Z,96.57
2023-05-14T05:36:20.175Z,96.06
2023-05-14T05:38:49.385Z,96.33
2023-05-14T05:41:17.144Z,95.92
2023-05-14T05:43:44.916Z,96.16
2023-05-14T05:46:13.123Z,95.83
2023-05-14T05:48:40.925Z,95.90
2023-05-14T05:51:08.948Z,95.84
2023-05-14T05:53:36.845Z,95.81
2023-05-14T05:56:06.984Z,96.01
2023-05-14T05:58:35.006Z,96.13
2023-05-14T06:01:02.923Z,95.50
2023-05-14T06:03:30.970Z,94.79
2023-05-14T06:05:58.955Z,94.46
2023-05-14T06:08:26.883Z,94.38
2023-05-14T06:10:54.650Z,94.23
2023-05-14T06:13:23.882Z,93.69
2023-05-14T06:15:51.772Z,93.96
2023-05-14T06:18:19.769Z,93.71
2023-05-14T06:20:47.804Z,93.54
2023-05-14T06:23:15.590Z,92.61
2023-05-14T06:25:43.480Z,92.23
2023-05-14T06:28:11.379Z,92.72
2023-05-14T06:30:40.512Z,92.21
2023-05-14T06:33:08.305Z,92.21
2023-05-14T06:35:37.002Z,92.02
2023-05-14T06:38:04.772Z,92.97
2023-05-14T06:40:32.837Z,89.84
2023-05-14T06:43:00.744Z,89.52
2023-05-14T06:45:28.621Z,89.41
2023-05-14T06:47:58.080Z,89.17
2023-05-14T06:50:26.083Z,89.08
2023-05-14T06:52:53.854Z,88.65
2023-05-14T06:55:21.826Z,87.71
2023-05-14T06:57:50.613Z,87.67
2023-05-14T07:00:19.221Z,87.75
2023-05-14T07:02:47.447Z,88.60
2023-05-14T07:05:16.882Z,86.83
2023-05-14T07:07:44.660Z,86.30
2023-05-14T07:10:12.589Z,85.39
2023-05-14T07:12:40.379Z,84.83
2023-05-14T07:15:10.113Z,84.87
2023-05-14T07:17:38.020Z,84.56
2023-05-14T07:20:07.087Z,84.94
2023-05-14T07:22:36.186Z,83.85
2023-05-14T07:25:04.004Z,86.83
2023-05-14T07:27:32.119Z,86.16
2023-05-14T07:30:00.200Z,81.86
2023-05-14T07:32:28.146Z,79.55
2023-05-14T07:34:56.265Z,77.70
2023-05-14T07:37:26.045Z,76.29
2023-05-14T07:39:56.175Z,73.13
2023-05-14T07:42:35.315Z,69.24
2023-05-14T07:45:04.152Z,68.18
2023-05-14T07:47:33.190Z,64.22
2023-05-14T07:50:01.396Z,62.97
2023-05-14T07:52:29.302Z,57.00
2023-05-14T07:54:58.624Z,58.60
2023-05-14T07:57:26.680Z,59.67
2023-05-14T07:59:54.424Z,58.03
2023-05-14T08:02:22.257Z,56.85
2023-05-14T08:04:50.473Z,57.64
2023-05-14T08:07:18.500Z,57.11
2023-05-14T08:09:46.268Z,58.56
2023-05-14T08:12:16.140Z,56.51
2023-05-14T08:14:44.112Z,55.41
2023-05-14T08:17:11.928Z,55.36
2023-05-14T08:19:39.813Z,55.59
2023-05-14T08:22:07.636Z,54.28
2023-05-14T08:24:35.566Z,53.28
2023-05-14T08:27:03.498Z,54.03
2023-05-14T08:29:33.007Z,53.05
2023-05-14T08:32:08.458Z,52.11
2023-05-14T08:34:44.081Z,50.72
2023-05-14T08:37:12.364Z,52.13
2023-05-14T08:39:40.127Z,51.52
2023-05-14T08:42:08.911Z,50.99
2023-05-14T08:44:42.961Z,49.88
2023-05-14T08:47:13.050Z,50.73
2023-05-14T08:49:45.316Z,49.90
2023-05-14T08:52:14.038Z,50.32
2023-05-14T08:54:41.905Z,50.12
2023-05-14T08:57:11.464Z,49.32
2023-05-14T08:59:41.307Z,49.21
2023-05-14T09:02:11.192Z,48.77
2023-05-14T09:04:39.788Z,47.18
2023-05-14T09:07:08.608Z,48.24
2023-05-14T09:09:36.606Z,47.74
2023-05-14T09:12:05.200Z,48.63
2023-05-14T09:14:34.359Z,49.91
2023-05-14T09:17:04.327Z,48.35
2023-05-14T09:19:32.336Z,49.66
2023-05-14T09:22:00.182Z,47.69
2023-05-14T09:24:29.625Z,48.12
2023-05-14T09:26:59.273Z,47.57
2023-05-14T09:29:28.685Z,47.98
2023-05-14T09:31:57.618Z,49.80
2023-05-14T09:34:28.237Z,48.64
2023-05-14T09:36:58.261Z,50.25
2023-05-14T09:39:28.539Z,50.53
2023-05-14T09:41:56.929Z,51.01
2023-05-14T09:44:25.707Z,50.29
2023-05-14T09:46:54.634Z,51.89
2023-05-14T09:49:24.683Z,53.05
2023-05-14T09:51:54.009Z,50.59
2023-05-14T09:54:21.739Z,51.05
2023-05-14T09:56:49.631Z,49.59
2023-05-14T09:59:17.424Z,50.03
2023-05-14T10:01:46.474Z,49.64
2023-05-14T10:04:15.531Z,49.50
2023-05-14T10:06:46.395Z,48.54
2023-05-14T10:09:18.380Z,48.93
2023-05-14T10:11:53.052Z,51.40
2023-05-14T10:14:26.073Z,52.34
2023-05-14T10:16:54.978Z,51.27
2023-05-14T10:19:25.833Z,52.45
2023-05-14T10:21:57.591Z,51.33
2023-05-14T10:24:27.697Z,51.32
2023-05-14T10:26:55.909Z,50.87
2023-05-14T10:29:33.715Z,52.71
2023-05-14T10:32:06.044Z,51.64
2023-05-14T10:34:38.767Z,51.95
2023-05-14T10:37:08.959Z,51.34
2023-05-14T10:39:46.994Z,49.67
2023-05-14T10:42:19.953Z,51.64
2023-05-14T10:44:52.297Z,51.55
2023-05-14T10:47:21.123Z,51.80
2023-05-14T10:49:53.046Z,50.58
2023-05-14T10:52:22.443Z,50.70
2023-05-14T10:54:56.616Z,50.87
2023-05-14T10:57:26.368Z,51.66
2023-05-14T10:59:55.692Z,50.90
2023-05-14T11:02:26.614Z,50.54
2023-05-14T11:05:00.159Z,52.20
2023-05-14T11:07:33.363Z,51.54
2023-05-14T11:10:05.355Z,51.69
2023-05-14T11:12:33.926Z,51.95
2023-05-14T11:15:05.610Z,51.58
2023-05-14T11:17:34.152Z,51.45
2023-05-14T11:20:05.614Z,51.75
2023-05-14T11:22:34.102Z,53.62
2023-05-14T11:25:03.615Z,52.99
2023-05-14T11:27:32.411Z,53.93
2023-05-14T11:30:01.113Z,53.94
2023-05-14T11:32:29.205Z,55.26
2023-05-14T11:34:57.262Z,55.70
2023-05-14T11:37:25.144Z,55.50
2023-05-14T11:39:56.057Z,53.48
2023-05-14T11:42:26.192Z,52.23
2023-05-14T11:44:55.138Z,53.32
2023-05-14T11:47:23.697Z,53.51
2023-05-14T11:49:51.741Z,52.18
2023-05-14T11:52:22.113Z,53.59
2023-05-14T11:54:51.074Z,52.64
2023-05-14T11:57:21.098Z,53.94
2023-05-14T11:59:56.662Z,52.63
2023-05-14T12:02:24.937Z,52.26
2023-05-14T12:04:55.819Z,52.65
2023-05-14T12:07:23.836Z,50.46
2023-05-14T12:09:51.809Z,49.97
2023-05-14T12:12:21.373Z,49.36
2023-05-14T12:14:52.674Z,50.23
2023-05-14T12:17:21.653Z,50.56
2023-05-14T12:19:51.070Z,49.29
2023-05-14T12:22:20.808Z,49.64
2023-05-14T12:24:54.411Z,48.67
2023-05-14T12:27:23.778Z,47.16
2023-05-14T12:30:09.266Z,47.47
2023-05-14T12:32:49.006Z,47.23
2023-05-14T12:35:17.265Z,47.63
2023-05-14T12:37:45.378Z,47.25
2023-05-14T12:40:13.708Z,47.90
2023-05-14T12:42:41.654Z,47.87
2023-05-14T12:45:12.161Z,47.86
2023-05-14T12:47:40.401Z,46.19
2023-05-14T12:50:09.232Z,45.30
2023-05-14T12:52:39.648Z,45.23
2023-05-14T12:55:09.079Z,45.88
2023-05-14T12:57:38.482Z,45.18
2023-05-14T13:00:08.230Z,45.02
2023-05-14T13:02:43.130Z,45.56
2023-05-14T13:05:11.717Z,44.94
2023-05-14T13:07:39.720Z,44.11
2023-05-14T13:10:08.516Z,44.22
2023-05-14T13:12:36.367Z,43.60
2023-05-14T13:15:04.277Z,44.69
2023-05-14T13:17:32.115Z,43.32
2023-05-14T13:20:01.404Z,41.28
2023-05-14T13:22:29.301Z,40.72
2023-05-14T13:24:57.174Z,42.08
2023-05-14T13:27:25.109Z,43.40
2023-05-14T13:29:53.139Z,44.44
2023-05-14T13:32:20.964Z,44.18
2023-05-14T13:34:48.915Z,43.07
2023-05-14T13:37:18.078Z,41.72
2023-05-14T13:39:46.017Z,43.86
2023-05-14T13:42:13.982Z,43.25
2023-05-14T13:44:41.866Z,41.39
2023-05-14T13:47:09.668Z,42.44
2023-05-14T13:49:37.640Z,40.82
2023-05-14T13:52:06.310Z,40.34
2023-05-14T13:54:35.395Z,42.38
2023-05-14T13:57:03.258Z,43.73
2023-05-14T13:59:31.057Z,43.26
2023-05-14T14:01:58.957Z,40.81
2023-05-14T14:04:29.027Z,42.44
2023-05-14T14:06:56.917Z,41.73
2023-05-14T14:09:25.496Z,43.26
2023-05-14T14:11:54.935Z,41.76
2023-05-14T14:14:23.082Z,44.36
2023-05-14T14:16:50.856Z,42.82
2023-05-14T14:19:18.747Z,44.55
2023-05-14T14:21:46.846Z,43.28
2023-05-14T14:24:14.669Z,41.67
2023-05-14T14:26:42.526Z,42.09
2023-05-14T14:29:11.652Z,41.03
2023-05-14T14:31:39.436Z,41.86
2023-05-14T14:34:07.336Z,41.37
2023-05-14T14:36:35.237Z,39.88
2023-05-14T14:39:03.094Z,40.03
2023-05-14T14:41:31.113Z,41.30
2023-05-14T14:43:58.988Z,39.97
2023-05-14T14:46:28.301Z,41.49
2023-05-14T14:48:56.105Z,43.64
2023-05-14T14:51:23.963Z,41.55
2023-05-14T14:53:51.772Z,42.97
2023-05-14T14:56:19.471Z,45.54
2023-05-14T14:58:47.180Z,45.45
2023-05-14T15:01:15.383Z,45.72
2023-05-14T15:03:45.680Z,44.41
2023-05-14T15:06:13.701Z,43.11
2023-05-14T15:08:41.607Z,43.99
2023-05-14T15:11:09.615Z,42.99
2023-05-14T15:13:37.444Z,41.95
2023-05-14T15:16:05.417Z,40.46
2023-05-14T15:18:33.441Z,40.81
2023-05-14T15:21:02.627Z,41.35
2023-05-14T15:23:30.504Z,41.84
2023-05-14T15:25:58.340Z,41.71
2023-05-14T15:28:26.046Z,42.37
2023-05-14T15:30:55.049Z,41.61
2023-05-14T15:33:23.610Z,42.02
2023-05-14T15:35:51.384Z,40.65
2023-05-14T15:38:20.741Z,41.28
2023-05-14T15:40:48.678Z,41.67
2023-05-14T15:43:16.416Z,41.99
2023-05-14T15:45:45.851Z,42.03
2023-05-14T15:48:14.044Z,41.61
2023-05-14T15:50:41.988Z,41.67
2023-05-14T15:53:10.067Z,41.04
2023-05-14T15:55:39.268Z,40.73
2023-05-14T15:58:07.281Z,41.40
2023-05-14T16:00:35.109Z,41.50
2023-05-14T16:03:03.055Z,40.87
2023-05-14T16:05:31.049Z,40.44
2023-05-14T16:07:59.469Z,40.39
2023-05-14T16:10:27.394Z,41.11
2023-05-14T16:12:56.939Z,40.50
2023-05-14T16:15:24.805Z,40.90
2023-05-14T16:17:53.205Z,40.77
2023-05-14T16:20:21.073Z,40.89
2023-05-14T16:22:48.861Z,42.14
2023-05-14T16:25:18.578Z,41.87
2023-05-14T16:27:46.645Z,42.10
2023-05-14T16:30:16.324Z,40.87
2023-05-14T16:32:46.682Z,43.48
2023-05-14T16:35:14.652Z,42.62
2023-05-14T16:37:42.507Z,43.47
2023-05-14T16:40:12.144Z,42.41
2023-05-14T16:42:40.391Z,44.13
2023-05-14T16:45:09.539Z,43.94
2023-05-14T16:47:38.670Z,42.91
2023-05-14T16:50:08.204Z,43.41
2023-05-14T16:52:36.054Z,44.33
2023-05-14T16:55:03.956Z,44.41
2023-05-14T16:57:32.100Z,43.79
2023-05-14T16:59:59.983Z,43.44
2023-05-14T17:02:27.858Z,42.25
2023-05-14T17:04:57.207Z,42.68
2023-05-14T17:07:25.142Z,43.86
2023-05-14T17:09:53.021Z,45.70
2023-05-14T17:12:20.986Z,45.15
2023-05-14T17:14:48.945Z,45.76
2023-05-14T17:17:16.920Z,45.53
2023-05-14T17:19:45.844Z,45.48
2023-05-14T17:22:15.222Z,45.53
2023-05-14T17:24:43.346Z,45.34
2023-05-14T17:27:11.181Z,45.64
2023-05-14T17:29:38.941Z,46.47
2023-05-14T17:32:07.245Z,46.99
2023-05-14T17:34:35.122Z,47.62
2023-05-14T17:37:02.928Z,48.40
2023-05-14T17:39:32.152Z,48.55
2023-05-14T17:42:00.044Z,49.33
2023-05-14T17:44:27.947Z,50.04
2023-05-14T17:46:55.996Z,50.41
2023-05-14T17:49:23.800Z,50.93
2023-05-14T17:51:51.806Z,50.36
2023-05-14T17:54:19.602Z,49.84
2023-05-14T17:56:50.893Z,50.67
2023-05-14T17:59:19.052Z,50.33
2023-05-14T18:01:46.772Z,50.30
2023-05-14T18:04:15.111Z,49.84
2023-05-14T18:06:44.153Z,50.42
2023-05-14T18:09:11.939Z,50.51
2023-05-14T18:11:39.983Z,51.90
2023-05-14T18:14:09.231Z,52.99
2023-05-14T18:16:38.096Z,53.76
2023-05-14T18:19:06.213Z,54.50
2023-05-14T18:21:34.013Z,54.39
2023-05-14T18:24:02.006Z,55.11
2023-05-14T18:26:32.205Z,56.23
2023-05-14T18:29:01.598Z,58.56
2023-05-14T18:31:31.231Z,59.63
2023-05-14T18:33:59.088Z,61.12
2023-05-14T18:36:26.909Z,61.92
2023-05-14T18:38:56.721Z,61.67
2023-05-14T18:41:24.530Z,61.79
2023-05-14T18:43:52.252Z,62.58
2023-05-14T18:46:20.338Z,62.86
2023-05-14T18:48:50.026Z,62.17
2023-05-14T18:51:18.088Z,61.15
2023-05-14T18:53:45.975Z,60.80
2023-05-14T18:56:13.725Z,61.15
2023-05-14T18:58:41.613Z,62.26
2023-05-14T19:01:09.515Z,62.62
2023-05-14T19:03:37.810Z,64.44
2023-05-14T19:06:19.174Z,63.69
2023-05-14T19:08:52.269Z,65.88
2023-05-14T19:11:31.971Z,63.02
2023-05-14T19:14:11.082Z,61.21
2023-05-14T19:16:39.077Z,60.75
2023-05-14T19:19:07.114Z,60.17
2023-05-14T19:21:36.900Z,61.32
2023-05-14T19:24:05.577Z,62.81
2023-05-14T19:26:33.618Z,60.89
2023-05-14T19:29:02.025Z,62.90
2023-05-14T19:31:30.006Z,62.06
2023-05-14T19:33:57.956Z,62.48
2023-05-14T19:36:26.459Z,63.19
2023-05-14T19:39:00.741Z,63.59
2023-05-14T19:41:28.850Z,66.61
2023-05-14T19:43:56.608Z,67.06
2023-05-14T19:46:53.489Z,67.11
2023-05-14T19:49:38.551Z,66.91
2023-05-14T19:52:30.383Z,67.72
2023-05-14T19:55:11.552Z,69.67
2023-05-14T19:57:53.807Z,69.94
2023-05-14T20:00:32.614Z,69.08
2023-05-14T20:03:07.495Z,68.85
2023-05-14T20:05:38.736Z,69.50
2023-05-14T20:08:08.152Z,69.80
2023-05-14T20:10:45.963Z,70.45
2023-05-14T20:13:42.058Z,67.98
2023-05-14T20:16:13.595Z,69.40
2023-05-14T20:18:41.392Z,70.17
2023-05-14T20:21:09.706Z,69.45
2023-05-14T20:23:37.712Z,69.40
2023-05-14T20:26:06.800Z,68.99
2023-05-14T20:28:34.618Z,68.74
2023-05-14T20:31:04.036Z,66.89
2023-05-14T20:33:31.903Z,65.18
2023-05-14T20:36:00.307Z,66.91
2023-05-14T20:38:29.338Z,67.79
2023-05-14T20:40:57.146Z,66.30
2023-05-14T20:43:28.274Z,66.40
2023-05-14T20:45:58.659Z,66.40
2023-05-14T20:48:28.310Z,69.27
2023-05-14T20:50:56.150Z,71.20
2023-05-14T20:53:25.336Z,72.05
2023-05-14T20:55:53.353Z,73.01
2023-05-14T20:58:21.286Z,75.06
2023-05-14T21:00:50.443Z,75.48
2023-05-14T21:03:18.245Z,74.98
2023-05-14T21:05:46.083Z,75.45
2023-05-14T21:08:13.850Z,75.42
2023-05-14T21:10:41.512Z,75.67
2023-05-14T21:13:09.389Z,76.11
2023-05-14T21:15:37.145Z,77.00
2023-05-14T21:18:06.510Z,76.95
2023-05-14T21:20:36.538Z,77.09
2023-05-14T21:23:04.233Z,77.04
2023-05-14T21:25:32.010Z,77.03
2023-05-14T21:27:59.694Z,77.70
2023-05-14T21:30:27.820Z,78.57
2023-05-14T21:32:55.740Z,79.47
2023-05-14T21:35:25.290Z,79.83
2023-05-14T21:37:53.249Z,79.77
2023-05-14T21:40:20.966Z,80.81
2023-05-14T21:42:48.775Z,80.52
2023-05-14T21:45:16.701Z,81.26
2023-05-14T21:47:44.528Z,82.01
2023-05-14T21:50:13.020Z,82.59
2023-05-14T21:52:42.343Z,82.23
2023-05-14T21:55:10.681Z,82.43
2023-05-14T21:57:38.454Z,82.31
2023-05-14T22:00:11.358Z,82.12
2023-05-14T22:02:39.285Z,82.20
2023-05-14T22:05:07.365Z,83.20
2023-05-14T22:07:35.070Z,83.77
2023-05-14T22:10:04.542Z,84.90
2023-05-14T22:12:32.362Z,84.78
2023-05-14T22:15:00.169Z,84.80
2023-05-14T22:17:28.171Z,84.82
2023-05-14T22:19:55.973Z,84.41
2023-05-14T22:22:23.724Z,84.96
2023-05-14T22:24:51.494Z,84.62
2023-05-14T22:27:20.896Z,85.04
2023-05-14T22:29:48.733Z,84.93
2023-05-14T22:32:16.462Z,84.51
2023-05-14T22:34:44.243Z,84.44
2023-05-14T22:37:11.938Z,84.22
2023-05-14T22:39:39.647Z,84.42
2023-05-14T22:42:07.485Z,84.34
2023-05-14T22:44:37.036Z,84.71
2023-05-14T22:47:06.031Z,84.54
2023-05-14T22:49:33.876Z,84.98
2023-05-14T22:52:01.552Z,86.17
2023-05-14T22:54:29.321Z,86.42
2023-05-14T22:56:57.062Z,86.81
2023-05-14T22:59:24.858Z,86.82
2023-05-14T23:01:54.156Z,86.91
2023-05-14T23:04:21.972Z,86.94
2023-05-14T23:06:49.692Z,86.62
2023-05-14T23:09:17.532Z,87.46
2023-05-14T23:11:46.090Z,87.33
2023-05-14T23:14:13.949Z,87.32
2023-05-14T23:16:41.988Z,87.22
2023-05-14T23:19:11.495Z,87.28
2023-05-14T23:21:39.390Z,87.39
2023-05-14T23:24:07.995Z,87.87
2023-05-14T23:26:35.765Z,87.79
2023-05-14T23:29:03.618Z,87.52
2023-05-14T23:31:31.454Z,87.38
2023-05-14T23:33:59.483Z,88.11
2023-05-14T23:36:31.293Z,88.06
2023-05-14T23:38:59.194Z,88.42
2023-05-14T23:41:27.072Z,88.81
2023-05-14T23:43:55.430Z,88.89
2023-05-14T23:46:23.493Z,88.79
2023-05-14T23:48:52.054Z,88.77
2023-05-14T23:51:19.763Z,88.74
2023-05-14T23:53:48.928Z,89.04
2023-05-14T23:56:16.910Z,89.04
2023-05-14T23:58:44.720Z,88.62
